createdAt,value
2023-08-08T00:00:17.511Z,10.88
2023-08-08T00:01:17.657Z,11.04
2023-08-08T00:02:17.811Z,10.8
2023-08-08T00:03:18.014Z,10.639999
2023-08-08T00:04:18.122Z,10.719999
2023-08-08T00:05:18.213Z,10.88
2023-08-08T00:06:18.369Z,10.719999
2023-08-08T00:07:18.520Z,10.48
2023-08-08T00:08:18.691Z,10.8
2023-08-08T00:09:18.783Z,10.88
2023-08-08T00:10:18.929Z,10.639999
2023-08-08T00:11:19.081Z,10.719999
2023-08-08T00:12:19.238Z,10.719999
2023-08-08T00:13:19.337Z,10.8
2023-08-08T00:14:19.493Z,10.8
2023-08-08T00:15:19.599Z,10.719999
2023-08-08T00:16:19.804Z,10.639999
2023-08-08T00:17:19.904Z,10.48
2023-08-08T00:18:20.046Z,10.639999
2023-08-08T00:19:20.207Z,10.719999
2023-08-08T00:20:20.358Z,10.48
2023-08-08T00:21:20.451Z,10.48
2023-08-08T00:22:20.595Z,10.48
2023-08-08T00:23:20.757Z,10.639999
2023-08-08T00:24:20.916Z,10.4
2023-08-08T00:25:21.051Z,10.48
2023-08-08T00:26:21.218Z,10.48
2023-08-08T00:27:21.303Z,10.48
2023-08-08T00:28:21.483Z,10.639999
2023-08-08T00:29:21.611Z,10.719999
2023-08-08T00:30:21.766Z,10.8
2023-08-08T00:31:21.882Z,10.719999
2023-08-08T00:32:22.014Z,10.639999
2023-08-08T00:33:22.129Z,10.639999
2023-08-08T00:34:22.277Z,10.48
2023-08-08T00:35:22.428Z,10.08
2023-08-08T00:36:22.610Z,10.32
2023-08-08T00:37:22.726Z,10.4
2023-08-08T00:38:22.876Z,10.48
2023-08-08T00:39:23.005Z,10.4
2023-08-08T00:40:23.137Z,10.4
2023-08-08T00:41:23.292Z,10.48
2023-08-08T00:42:23.386Z,10.48
2023-08-08T00:43:23.490Z,10.639999
2023-08-08T00:44:23.654Z,10.08
2023-08-08T00:45:23.801Z,10.24
2023-08-08T00:46:23.981Z,10.24
2023-08-08T00:47:24.066Z,10.32
2023-08-08T00:48:24.151Z,10.24
2023-08-08T00:49:24.303Z,10.32
2023-08-08T00:50:24.460Z,10
2023-08-08T00:51:24.553Z,10.24
2023-08-08T00:52:24.704Z,10.32
2023-08-08T00:53:24.876Z,10.4
2023-08-08T00:54:25.008Z,10.32
2023-08-08T00:55:25.137Z,10.32
2023-08-08T00:56:25.280Z,9.84
2023-08-08T00:57:25.378Z,9.84
2023-08-08T00:58:25.526Z,9.599999
2023-08-08T00:59:25.637Z,9.599999
2023-08-08T01:00:25.768Z,10.24
2023-08-08T01:01:25.927Z,10.24
2023-08-08T01:02:26.128Z,10.08
2023-08-08T01:03:26.277Z,10.24
2023-08-08T01:04:26.382Z,9.84
2023-08-08T01:05:26.534Z,9.92
2023-08-08T01:06:26.708Z,9.599999
2023-08-08T01:07:26.865Z,10
2023-08-08T01:08:27.010Z,10
2023-08-08T01:09:29.556Z,9.92
2023-08-08T01:10:27.416Z,10.24
2023-08-08T01:11:27.539Z,10.32
2023-08-08T01:12:27.706Z,10.32
2023-08-08T01:13:27.797Z,10.24
2023-08-08T01:14:27.954Z,10.24
2023-08-08T01:15:28.067Z,9.92
2023-08-08T01:16:28.211Z,10
2023-08-08T01:17:28.388Z,10.08
2023-08-08T01:18:28.551Z,10.08
2023-08-08T01:19:28.652Z,10
2023-08-08T01:20:28.812Z,10.24
2023-08-08T01:21:28.911Z,10.32
2023-08-08T01:22:29.017Z,10
2023-08-08T01:23:29.176Z,10.08
2023-08-08T01:24:29.318Z,10.32
2023-08-08T01:25:29.421Z,10.48
2023-08-08T01:26:29.583Z,10.48
2023-08-08T01:27:29.722Z,10.4
2023-08-08T01:28:29.871Z,10.32
2023-08-08T01:29:30.043Z,10.08
2023-08-08T01:30:30.187Z,9.92
2023-08-08T01:31:30.334Z,10
2023-08-08T01:32:30.493Z,10.24
2023-08-08T01:33:30.631Z,10.32
2023-08-08T01:34:30.784Z,10.08
2023-08-08T01:35:30.939Z,9.92
2023-08-08T01:36:31.087Z,10
2023-08-08T01:37:31.246Z,10.24
2023-08-08T01:38:31.385Z,10.24
2023-08-08T01:39:31.614Z,10.4
2023-08-08T01:40:31.704Z,10.32
2023-08-08T01:41:31.845Z,10.32
2023-08-08T01:42:32.003Z,10.48
2023-08-08T01:43:32.097Z,10.32
2023-08-08T01:44:32.246Z,10.24
2023-08-08T01:45:32.398Z,10.08
2023-08-08T01:46:32.577Z,10.08
2023-08-08T01:47:32.706Z,10.08
2023-08-08T01:48:32.854Z,10
2023-08-08T01:49:33.006Z,10.08
2023-08-08T01:50:33.161Z,9.92
2023-08-08T01:51:33.316Z,10
2023-08-08T01:52:33.423Z,9.92
2023-08-08T01:53:33.567Z,10
2023-08-08T01:54:33.672Z,10.24
2023-08-08T01:55:33.830Z,10
2023-08-08T01:56:34.028Z,10
2023-08-08T01:57:34.172Z,10.08
2023-08-08T01:58:34.329Z,10.08
2023-08-08T01:59:34.476Z,9.92
2023-08-08T02:00:34.641Z,9.599999
2023-08-08T02:01:34.777Z,9.679999
2023-08-08T02:02:34.919Z,9.84
2023-08-08T02:03:35.067Z,10
2023-08-08T02:04:35.208Z,10.08
2023-08-08T02:05:35.347Z,10.08
2023-08-08T02:06:35.490Z,10.24
2023-08-08T02:07:35.595Z,10
2023-08-08T02:08:35.740Z,10
2023-08-08T02:09:35.906Z,10.24
2023-08-08T02:10:36.053Z,10.24
2023-08-08T02:11:36.202Z,9.92
2023-08-08T02:12:36.355Z,9.84
2023-08-08T02:13:36.502Z,9.92
2023-08-08T02:14:36.654Z,10
2023-08-08T02:16:36.952Z,9.84
2023-08-08T02:17:37.104Z,9.679999
2023-08-08T02:18:37.170Z,9.679999
2023-08-08T02:19:37.312Z,9.679999
2023-08-08T02:20:37.465Z,9.679999
2023-08-08T02:21:37.575Z,9.679999
2023-08-08T02:22:37.717Z,9.52
2023-08-08T02:23:37.884Z,9.599999
2023-08-08T02:24:38.033Z,9.679999
2023-08-08T02:25:38.177Z,9.92
2023-08-08T02:26:38.330Z,10
2023-08-08T02:27:38.476Z,10
2023-08-08T02:28:38.631Z,9.679999
2023-08-08T02:29:38.778Z,9.599999
2023-08-08T02:30:38.984Z,9.599999
2023-08-08T02:31:39.098Z,9.52
2023-08-08T02:32:39.209Z,9.52
2023-08-08T02:33:39.336Z,9.84
2023-08-08T02:34:39.445Z,9.599999
2023-08-08T02:35:39.599Z,9.52
2023-08-08T02:36:39.747Z,9.36
2023-08-08T02:37:39.897Z,9.679999
2023-08-08T02:38:39.997Z,9.679999
2023-08-08T02:39:40.148Z,9.28
2023-08-08T02:40:40.253Z,9.599999
2023-08-08T02:41:40.412Z,9.679999
2023-08-08T02:42:40.560Z,9.599999
2023-08-08T02:43:40.713Z,9.599999
2023-08-08T02:44:40.857Z,9.679999
2023-08-08T02:45:41.028Z,9.36
2023-08-08T02:46:41.154Z,9.599999
2023-08-08T02:47:41.430Z,9.599999
2023-08-08T02:48:41.572Z,9.599999
2023-08-08T02:49:41.685Z,9.679999
2023-08-08T02:50:41.923Z,9.679999
2023-08-08T02:51:42.074Z,9.84
2023-08-08T02:52:42.173Z,9.679999
2023-08-08T02:53:42.323Z,9.84
2023-08-08T02:54:42.477Z,9.84
2023-08-08T02:55:42.632Z,9.92
2023-08-08T02:56:42.743Z,9.84
2023-08-08T02:57:42.895Z,9.599999
2023-08-08T02:58:43.044Z,9.679999
2023-08-08T02:59:43.185Z,9.599999
2023-08-08T03:00:43.339Z,9.679999
2023-08-08T03:01:43.562Z,9.599999
2023-08-08T03:02:43.639Z,9.599999
2023-08-08T03:03:43.756Z,9.52
2023-08-08T03:04:43.907Z,9.28
2023-08-08T03:05:44.050Z,9.28
2023-08-08T03:06:44.199Z,9.28
2023-08-08T03:07:44.351Z,9.36
2023-08-08T03:08:44.503Z,9.36
2023-08-08T03:09:44.660Z,9.36
2023-08-08T03:10:44.765Z,9.599999
2023-08-08T03:11:44.910Z,9.679999
2023-08-08T03:12:45.063Z,9.599999
2023-08-08T03:13:45.210Z,9.36
2023-08-08T03:14:45.369Z,9.52
2023-08-08T03:15:45.475Z,9.28
2023-08-08T03:16:45.643Z,9.36
2023-08-08T03:17:45.802Z,9.2
2023-08-08T03:18:45.872Z,9.52
2023-08-08T03:19:46.042Z,9.36
2023-08-08T03:20:46.178Z,9.52
2023-08-08T03:21:46.353Z,9.679999
2023-08-08T03:22:46.478Z,9.599999
2023-08-08T03:23:46.652Z,9.599999
2023-08-08T03:24:46.780Z,9.84
2023-08-08T03:25:46.940Z,9.679999
2023-08-08T03:26:47.081Z,9.599999
2023-08-08T03:27:47.278Z,9.36
2023-08-08T03:28:47.386Z,9.2
2023-08-08T03:29:47.551Z,9.28
2023-08-08T03:30:47.694Z,9.2
2023-08-08T03:31:47.850Z,9.2
2023-08-08T03:32:48.018Z,9.36
2023-08-08T03:33:48.178Z,9.52
2023-08-08T03:34:48.251Z,9.36
2023-08-08T03:35:48.418Z,9.52
2023-08-08T03:36:48.508Z,9.84
2023-08-08T03:37:48.658Z,9.84
2023-08-08T03:38:48.808Z,9.84
2023-08-08T03:39:48.960Z,9.679999
2023-08-08T03:40:49.061Z,9.84
2023-08-08T03:41:49.163Z,9.599999
2023-08-08T03:42:49.264Z,9.599999
2023-08-08T03:43:49.415Z,9.52
2023-08-08T03:44:49.524Z,9.599999
2023-08-08T03:45:49.630Z,9.52
2023-08-08T03:46:49.794Z,9.52
2023-08-08T03:47:49.963Z,9.52
2023-08-08T03:48:51.236Z,9.599999
2023-08-08T03:49:50.184Z,9.599999
2023-08-08T03:50:50.331Z,9.599999
2023-08-08T03:51:50.479Z,9.679999
2023-08-08T03:52:50.641Z,9.84
2023-08-08T03:53:50.789Z,9.599999
2023-08-08T03:54:50.937Z,9.599999
2023-08-08T03:55:51.042Z,9.84
2023-08-08T03:56:51.196Z,9.92
2023-08-08T03:57:51.294Z,9.84
2023-08-08T03:58:51.449Z,9.84
2023-08-08T03:59:51.601Z,9.679999
2023-08-08T04:00:51.751Z,9.599999
2023-08-08T04:01:51.849Z,9.84
2023-08-08T04:02:52.046Z,9.92
2023-08-08T04:03:52.121Z,10.24
2023-08-08T04:04:52.260Z,10.32
2023-08-08T04:05:52.797Z,10.32
2023-08-08T04:07:52.718Z,10.4
2023-08-08T04:08:53.344Z,10.4
2023-08-08T04:10:53.120Z,10.48
2023-08-08T04:11:53.266Z,10.32
2023-08-08T04:12:53.371Z,10.4
2023-08-08T04:13:53.523Z,10.4
2023-08-08T04:14:53.673Z,10.4
2023-08-08T04:15:53.828Z,10.4
2023-08-08T04:16:54.037Z,10.48
2023-08-08T04:17:54.162Z,10.4
2023-08-08T04:18:54.298Z,10.639999
2023-08-08T04:19:54.440Z,10.8
2023-08-08T04:20:54.589Z,10.88
2023-08-08T04:21:54.794Z,10.88
2023-08-08T04:22:54.835Z,10.719999
2023-08-08T04:23:54.992Z,10.639999
2023-08-08T04:24:55.142Z,10.719999
2023-08-08T04:25:55.314Z,10.48
2023-08-08T04:26:55.402Z,10.48
2023-08-08T04:27:55.551Z,10.48
2023-08-08T04:28:55.656Z,10.48
2023-08-08T04:29:55.798Z,10.4
2023-08-08T04:30:55.974Z,10.4
2023-08-08T04:31:56.103Z,10.88
2023-08-08T04:32:56.242Z,11.28
2023-08-08T04:33:56.485Z,11.28
2023-08-08T04:34:56.461Z,11.2
2023-08-08T04:35:56.569Z,11.04
2023-08-08T04:36:56.674Z,11.04
2023-08-08T04:37:56.823Z,11.2
2023-08-08T04:38:56.969Z,10.8
2023-08-08T04:39:57.160Z,10.719999
2023-08-08T04:40:57.217Z,10.4
2023-08-08T04:41:57.373Z,10.48
2023-08-08T04:42:57.525Z,10.639999
2023-08-08T04:43:57.675Z,10.48
2023-08-08T04:44:57.779Z,10.639999
2023-08-08T04:45:57.879Z,10.48
2023-08-08T04:46:58.034Z,10.639999
2023-08-08T04:47:58.198Z,10.88
2023-08-08T04:48:58.705Z,11.04
2023-08-08T04:49:58.495Z,11.04
2023-08-08T04:50:58.638Z,11.04
2023-08-08T04:51:58.999Z,11.44
2023-08-08T04:52:58.941Z,11.679999
2023-08-08T04:53:59.055Z,11.599999
2023-08-08T04:54:59.196Z,12.08
2023-08-08T04:55:59.300Z,12.48
2023-08-08T04:56:59.448Z,12.799999
2023-08-08T04:57:59.604Z,13.04
2023-08-08T04:58:59.751Z,12.4
2023-08-08T04:59:59.864Z,12.08
2023-08-08T05:01:00.077Z,12
2023-08-08T05:02:00.246Z,11.92
2023-08-08T05:03:00.373Z,12.24
2023-08-08T05:04:00.425Z,12.719999
2023-08-08T05:05:00.567Z,12.48
2023-08-08T05:06:00.665Z,12.24
2023-08-08T05:07:00.835Z,12.24
2023-08-08T05:08:00.929Z,12.08
2023-08-08T05:09:01.031Z,12
2023-08-08T05:10:01.171Z,12
2023-08-08T05:11:01.276Z,12
2023-08-08T05:12:01.663Z,12
2023-08-08T05:13:01.588Z,12
2023-08-08T05:14:01.728Z,12
2023-08-08T05:15:01.880Z,12
2023-08-08T05:16:02.059Z,11.92
2023-08-08T05:17:02.188Z,12
2023-08-08T05:18:02.406Z,12
2023-08-08T05:19:02.444Z,12.24
2023-08-08T05:20:02.553Z,12.24
2023-08-08T05:21:02.693Z,12
2023-08-08T05:22:02.947Z,12
2023-08-08T05:23:03.019Z,11.84
2023-08-08T05:24:03.157Z,11.84
2023-08-08T05:25:03.299Z,11.84
2023-08-08T05:26:03.454Z,11.84
2023-08-08T05:27:03.559Z,11.84
2023-08-08T05:28:03.703Z,11.84
2023-08-08T05:29:03.861Z,11.92
2023-08-08T05:30:04.011Z,11.92
2023-08-08T05:31:04.116Z,11.92
2023-08-08T05:32:04.228Z,12
2023-08-08T05:33:04.379Z,12
2023-08-08T05:34:04.467Z,12
2023-08-08T05:35:04.578Z,12
2023-08-08T05:36:04.682Z,11.92
2023-08-08T05:37:14.925Z,12
2023-08-08T05:38:04.980Z,11.92
2023-08-08T05:39:05.130Z,11.92
2023-08-08T05:40:05.281Z,11.92
2023-08-08T05:41:05.390Z,11.92
2023-08-08T05:42:05.691Z,11.92
2023-08-08T05:43:05.706Z,11.92
2023-08-08T05:44:05.838Z,11.92
2023-08-08T05:45:06.005Z,12
2023-08-08T05:46:06.153Z,12
2023-08-08T05:47:06.246Z,12
2023-08-08T05:48:06.407Z,12
2023-08-08T05:49:06.496Z,12.32
2023-08-08T05:50:06.595Z,12.4
2023-08-08T05:51:06.746Z,12.24
2023-08-08T05:52:06.863Z,12.08
2023-08-08T05:53:07.002Z,12.08
2023-08-08T05:54:07.173Z,12.08
2023-08-08T05:55:07.275Z,12.08
2023-08-08T05:56:07.357Z,12.08
2023-08-08T05:57:07.511Z,12
2023-08-08T05:58:07.620Z,12
2023-08-08T05:59:07.768Z,12.08
2023-08-08T06:00:07.942Z,12.08
2023-08-08T06:01:08.093Z,12.08
2023-08-08T06:02:08.283Z,12.08
2023-08-08T06:03:08.376Z,12.32
2023-08-08T06:04:08.500Z,12.24
2023-08-08T06:05:08.647Z,12.32
2023-08-08T06:06:08.741Z,12.24
2023-08-08T06:07:10.083Z,12.08
2023-08-08T06:08:09.026Z,12.08
2023-08-08T06:09:09.176Z,12.24
2023-08-08T06:10:09.329Z,12.24
2023-08-08T06:11:09.436Z,12.24
2023-08-08T06:12:09.591Z,12.24
2023-08-08T06:13:09.738Z,12.24
2023-08-08T06:14:09.893Z,12.24
2023-08-08T06:15:10.039Z,12.24
2023-08-08T06:16:10.188Z,12.32
2023-08-08T06:17:10.290Z,12.32
2023-08-08T06:18:10.474Z,12.4
2023-08-08T06:19:10.597Z,12.4
2023-08-08T06:20:10.738Z,12.4
2023-08-08T06:21:10.851Z,12.4
2023-08-08T06:22:10.998Z,12.32
2023-08-08T06:23:11.159Z,12.32
2023-08-08T06:24:11.316Z,12.4
2023-08-08T06:25:11.462Z,12.4
2023-08-08T06:26:11.567Z,12.4
2023-08-08T06:27:11.778Z,12.48
2023-08-08T06:28:11.813Z,12.639999
2023-08-08T06:29:11.976Z,12.639999
2023-08-08T06:30:12.067Z,12.719999
2023-08-08T06:31:12.248Z,12.719999
2023-08-08T06:32:12.377Z,12.799999
2023-08-08T06:33:12.515Z,12.799999
2023-08-08T06:34:12.577Z,12.719999
2023-08-08T06:35:13.478Z,12.719999
2023-08-08T06:36:12.879Z,12.719999
2023-08-08T06:37:13.030Z,12.719999
2023-08-08T06:38:13.132Z,12.719999
2023-08-08T06:39:13.298Z,12.88
2023-08-08T06:40:13.442Z,12.88
2023-08-08T06:41:13.597Z,13.04
2023-08-08T06:42:13.744Z,12.88
2023-08-08T06:43:13.889Z,13.12
2023-08-08T06:44:14.007Z,13.12
2023-08-08T06:45:14.158Z,13.2
2023-08-08T06:46:14.385Z,13.28
2023-08-08T06:47:14.506Z,13.52
2023-08-08T06:48:14.650Z,13.44
2023-08-08T06:49:14.801Z,13.28
2023-08-08T06:50:14.914Z,13.2
2023-08-08T06:51:15.076Z,13.04
2023-08-08T06:52:15.206Z,12.88
2023-08-08T06:53:15.362Z,12.88
2023-08-08T06:54:15.511Z,12.799999
2023-08-08T06:55:15.664Z,12.799999
2023-08-08T06:56:15.775Z,12.719999
2023-08-08T06:57:15.921Z,12.639999
2023-08-08T06:58:16.067Z,12.639999
2023-08-08T06:59:16.170Z,12.639999
2023-08-08T07:00:16.272Z,12.4
2023-08-08T07:01:16.435Z,12.48
2023-08-08T07:02:16.583Z,12.4
2023-08-08T07:03:16.779Z,12.4
2023-08-08T07:04:17.032Z,12.4
2023-08-08T07:05:17.180Z,12.4
2023-08-08T07:06:17.352Z,12.4
2023-08-08T07:07:17.546Z,12.32
2023-08-08T07:08:17.688Z,12.4
2023-08-08T07:09:17.896Z,12.4
2023-08-08T07:10:17.989Z,12.639999
2023-08-08T07:11:18.149Z,12.719999
2023-08-08T07:12:18.296Z,12.719999
2023-08-08T07:13:18.455Z,12.799999
2023-08-08T07:14:18.601Z,12.719999
2023-08-08T07:15:18.752Z,12.719999
2023-08-08T07:16:18.966Z,12.719999
2023-08-08T07:17:18.971Z,12.719999
2023-08-08T07:18:19.110Z,12.799999
2023-08-08T07:19:19.260Z,12.799999
2023-08-08T07:20:19.404Z,12.719999
2023-08-08T07:21:19.557Z,12.88
2023-08-08T07:22:19.664Z,12.88
2023-08-08T07:23:19.813Z,13.04
2023-08-08T07:24:20.049Z,13.04
2023-08-08T07:25:20.237Z,12.88
2023-08-08T07:26:20.370Z,13.04
2023-08-08T07:27:20.526Z,13.2
2023-08-08T07:28:20.674Z,13.04
2023-08-08T07:29:20.781Z,12.88
2023-08-08T07:30:20.929Z,12.88
2023-08-08T07:31:21.113Z,12.88
2023-08-08T07:33:21.330Z,12.799999
2023-08-08T07:34:21.495Z,12.88
2023-08-08T07:35:21.637Z,12.88
2023-08-08T07:36:21.789Z,12.799999
2023-08-08T07:37:21.981Z,12.799999
2023-08-08T07:38:22.090Z,12.88
2023-08-08T07:39:22.205Z,12.88
2023-08-08T07:40:22.349Z,12.799999
2023-08-08T07:41:22.761Z,12.719999
2023-08-08T07:42:22.939Z,12.799999
2023-08-08T07:43:22.919Z,12.719999
2023-08-08T07:44:23.057Z,12.719999
2023-08-08T07:46:23.230Z,12.799999
2023-08-08T07:47:23.323Z,12.799999
2023-08-08T07:48:23.459Z,12.88
2023-08-08T07:49:23.563Z,12.88
2023-08-08T07:50:23.716Z,12.88
2023-08-08T07:51:23.815Z,13.12
2023-08-08T07:52:23.968Z,13.12
2023-08-08T07:53:24.120Z,13.12
2023-08-08T07:54:24.219Z,13.12
2023-08-08T07:55:24.374Z,13.2
2023-08-08T07:56:24.528Z,13.12
2023-08-08T07:57:24.696Z,13.12
2023-08-08T07:58:24.845Z,13.12
2023-08-08T07:59:24.992Z,13.12
2023-08-08T08:00:25.213Z,13.2
2023-08-08T08:01:25.312Z,13.28
2023-08-08T08:02:25.527Z,13.44
2023-08-08T08:03:25.719Z,13.599999
2023-08-08T08:04:25.797Z,13.599999
2023-08-08T08:05:25.945Z,13.92
2023-08-08T08:06:26.094Z,14.24
2023-08-08T08:07:26.242Z,14.32
2023-08-08T08:08:26.400Z,14.799999
2023-08-08T08:09:26.498Z,15.12
2023-08-08T08:10:26.603Z,15.28
2023-08-08T08:11:26.705Z,15.599999
2023-08-08T08:12:26.806Z,15.28
2023-08-08T08:13:26.953Z,16
2023-08-08T08:14:27.063Z,16.4
2023-08-08T08:15:27.205Z,16.72
2023-08-08T08:16:27.328Z,17.28
2023-08-08T08:17:27.486Z,17.52
2023-08-08T08:18:27.620Z,18.32
2023-08-08T08:19:27.770Z,19.12
2023-08-08T08:20:27.915Z,18.48
2023-08-08T08:21:28.072Z,18.8
2023-08-08T08:22:28.192Z,18.08
2023-08-08T08:23:28.322Z,18.32
2023-08-08T08:24:28.543Z,18
2023-08-08T08:25:28.677Z,17.76
2023-08-08T08:26:28.836Z,18.72
2023-08-08T08:27:28.987Z,17.52
2023-08-08T08:28:29.135Z,17.44
2023-08-08T08:29:29.286Z,17.92
2023-08-08T08:30:29.442Z,17.2
2023-08-08T08:31:29.634Z,16.64
2023-08-08T08:32:29.757Z,16.64
2023-08-08T08:33:29.889Z,16.48
2023-08-08T08:34:30.045Z,16.4
2023-08-08T08:35:30.195Z,16.08
2023-08-08T08:36:30.360Z,15.679999
2023-08-08T08:37:30.453Z,15.839999
2023-08-08T08:38:30.600Z,16
2023-08-08T08:39:30.704Z,16.32
2023-08-08T08:40:30.853Z,16.8
2023-08-08T08:41:31.019Z,17.04
2023-08-08T08:42:31.109Z,16.88
2023-08-08T08:43:31.288Z,17.68
2023-08-08T08:44:31.472Z,17.76
2023-08-08T08:45:31.613Z,17.44
2023-08-08T08:46:31.718Z,17.76
2023-08-08T08:47:31.909Z,18.32
2023-08-08T08:48:32.028Z,18.72
2023-08-08T08:49:32.119Z,19.52
2023-08-08T08:50:32.422Z,19.04
2023-08-08T08:51:32.571Z,19.6
2023-08-08T08:52:32.723Z,19.52
2023-08-08T08:53:32.830Z,19.12
2023-08-08T08:54:32.954Z,19.12
2023-08-08T08:55:33.081Z,19.04
2023-08-08T08:56:33.231Z,19.04
2023-08-08T08:57:33.338Z,19.28
2023-08-08T08:58:33.435Z,18.88
2023-08-08T08:59:33.599Z,18.48
2023-08-08T09:00:33.771Z,18.48
2023-08-08T09:01:33.856Z,18.88
2023-08-08T09:02:34.057Z,18.72
2023-08-08T09:03:34.226Z,19.12
2023-08-08T09:04:34.321Z,19.52
2023-08-08T09:05:34.463Z,19.76
2023-08-08T09:06:34.561Z,19.76
2023-08-08T09:07:34.709Z,19.92
2023-08-08T09:08:34.804Z,19.6
2023-08-08T09:09:34.956Z,19.92
2023-08-08T09:10:35.084Z,20.8
2023-08-08T09:11:35.216Z,21.52
2023-08-08T09:12:35.364Z,21.28
2023-08-08T09:13:35.463Z,22.32
2023-08-08T09:14:35.628Z,21.2
2023-08-08T09:15:35.745Z,21.84
2023-08-08T09:16:35.876Z,22.32
2023-08-08T09:17:46.451Z,21.6
2023-08-08T09:18:36.142Z,20.4
2023-08-08T09:19:36.273Z,20
2023-08-08T09:20:36.428Z,21.12
2023-08-08T09:21:36.536Z,21.2
2023-08-08T09:22:36.628Z,20.72
2023-08-08T09:23:36.729Z,19.68
2023-08-08T09:24:36.837Z,19.6
2023-08-08T09:25:36.933Z,19.44
2023-08-08T09:26:37.102Z,19.52
2023-08-08T09:27:37.286Z,19.28
2023-08-08T09:28:37.402Z,19.52
2023-08-08T09:29:37.546Z,19.2
2023-08-08T09:30:37.719Z,19.04
2023-08-08T09:31:37.850Z,18.88
2023-08-08T09:32:38.052Z,18.88
2023-08-08T09:33:38.157Z,18.4
2023-08-08T09:34:38.257Z,18.72
2023-08-08T09:35:38.399Z,18.48
2023-08-08T09:36:38.505Z,18.72
2023-08-08T09:37:38.606Z,18.88
2023-08-08T09:38:38.758Z,18
2023-08-08T09:39:38.909Z,18.4
2023-08-08T09:40:39.015Z,19.04
2023-08-08T09:41:39.117Z,19.68
2023-08-08T09:42:39.218Z,19.68
2023-08-08T09:43:39.316Z,20.08
2023-08-08T09:44:39.474Z,19.92
2023-08-08T09:45:39.577Z,19.68
2023-08-08T09:46:39.718Z,20
2023-08-08T09:47:39.859Z,19.44
2023-08-08T09:48:40.006Z,19.52
2023-08-08T09:49:40.202Z,19.2
2023-08-08T09:50:40.381Z,18.48
2023-08-08T09:51:40.533Z,18.24
2023-08-08T09:52:40.640Z,18.08
2023-08-08T09:53:40.752Z,17.92
2023-08-08T09:54:40.885Z,17.6
2023-08-08T09:55:41.002Z,17.2
2023-08-08T09:56:41.145Z,17.52
2023-08-08T09:57:41.244Z,17.2
2023-08-08T09:58:41.416Z,17.12
2023-08-08T09:59:41.565Z,17.12
2023-08-08T10:00:41.698Z,17.04
2023-08-08T10:01:41.847Z,17.04
2023-08-08T10:02:42.075Z,16.8
2023-08-08T10:03:42.168Z,16.64
2023-08-08T10:04:42.257Z,16.48
2023-08-08T10:05:42.410Z,16.8
2023-08-08T10:06:42.558Z,17.12
2023-08-08T10:07:42.668Z,17.04
2023-08-08T10:08:42.829Z,17.28
2023-08-08T10:09:43.050Z,17.04
2023-08-08T10:10:43.777Z,17.52
2023-08-08T10:11:43.321Z,17.44
2023-08-08T10:12:43.432Z,17.6
2023-08-08T10:13:43.529Z,17.76
2023-08-08T10:14:43.681Z,18
2023-08-08T10:15:43.922Z,18.4
2023-08-08T10:16:44.847Z,18.24
2023-08-08T10:17:44.184Z,18.24
2023-08-08T10:18:44.254Z,18.08
2023-08-08T10:19:44.331Z,17.92
2023-08-08T10:20:44.490Z,17.92
2023-08-08T10:21:44.655Z,18
2023-08-08T10:22:44.775Z,17.68
2023-08-08T10:23:44.897Z,17.6
2023-08-08T10:24:44.995Z,17.44
2023-08-08T10:25:45.099Z,17.12
2023-08-08T10:26:45.260Z,17.44
2023-08-08T10:27:45.398Z,17.44
2023-08-08T10:28:45.552Z,16.88
2023-08-08T10:29:45.726Z,17.12
2023-08-08T10:30:45.958Z,17.2
2023-08-08T10:31:46.172Z,17.2
2023-08-08T10:32:46.223Z,16.88
2023-08-08T10:33:46.360Z,16.8
2023-08-08T10:34:46.466Z,16.72
2023-08-08T10:35:46.617Z,16.72
2023-08-08T10:36:46.775Z,16.72
2023-08-08T10:37:46.918Z,16.64
2023-08-08T10:38:47.072Z,16.72
2023-08-08T10:39:47.167Z,16.8
2023-08-08T10:40:47.276Z,17.04
2023-08-08T10:41:47.435Z,17.04
2023-08-08T10:42:47.580Z,17.04
2023-08-08T10:43:47.683Z,17.28
2023-08-08T10:44:47.837Z,17.44
2023-08-08T10:45:51.996Z,17.6
2023-08-08T10:46:48.086Z,18
2023-08-08T10:47:48.271Z,17.76
2023-08-08T10:48:48.337Z,17.76
2023-08-08T10:49:48.571Z,17.76
2023-08-08T10:50:48.740Z,17.6
2023-08-08T10:51:48.900Z,18.32
2023-08-08T10:52:48.999Z,18.48
2023-08-08T10:53:49.151Z,18.4
2023-08-08T10:54:49.318Z,18.08
2023-08-08T10:55:49.411Z,18.32
2023-08-08T10:56:49.550Z,18.4
2023-08-08T10:57:49.700Z,19.12
2023-08-08T10:58:49.859Z,18.72
2023-08-08T10:59:50.012Z,18.88
2023-08-08T11:00:50.208Z,19.12
2023-08-08T11:01:50.275Z,18.72
2023-08-08T11:02:50.450Z,18.8
2023-08-08T11:03:50.517Z,20.08
2023-08-08T11:04:50.672Z,20.72
2023-08-08T11:05:50.828Z,20.8
2023-08-08T11:06:50.920Z,21.04
2023-08-08T11:07:51.072Z,21.04
2023-08-08T11:08:51.250Z,21.44
2023-08-08T11:09:51.497Z,22.24
2023-08-08T11:10:51.628Z,21.6
2023-08-08T11:11:51.781Z,22.64
2023-08-08T11:12:51.928Z,23.28
2023-08-08T11:13:52.083Z,23.44
2023-08-08T11:14:52.238Z,24
2023-08-08T11:15:52.365Z,23.04
2023-08-08T11:16:52.588Z,21.68
2023-08-08T11:17:52.608Z,21.6
2023-08-08T11:18:52.700Z,21.04
2023-08-08T11:19:52.788Z,21.28
2023-08-08T11:20:55.592Z,21.6
2023-08-08T11:21:53.006Z,22.24
2023-08-08T11:22:53.156Z,24.24
2023-08-08T11:23:53.307Z,24.32
2023-08-08T11:24:53.475Z,24.08
2023-08-08T11:26:53.707Z,22.4
2023-08-08T11:27:54.447Z,21.92
2023-08-08T11:29:54.236Z,22
2023-08-08T11:30:55.018Z,22.48
2023-08-08T11:33:54.866Z,23.04
2023-08-08T11:34:55.018Z,22.48
2023-08-08T11:35:55.171Z,22.64
2023-08-08T11:36:55.328Z,22
2023-08-08T11:37:55.424Z,22.8
2023-08-08T11:38:55.589Z,24
2023-08-08T11:39:55.752Z,25.2
2023-08-08T11:40:55.831Z,24.4
2023-08-08T11:41:56.883Z,26.48
2023-08-08T11:42:56.144Z,26.48
2023-08-08T11:43:56.292Z,26.48
2023-08-08T11:44:56.437Z,24.4
2023-08-08T11:45:56.589Z,23.68
2023-08-08T11:46:56.761Z,22.08
2023-08-08T11:47:57.009Z,21.92
2023-08-08T11:48:57.002Z,22.24
2023-08-08T11:49:57.200Z,21.44
2023-08-08T11:50:57.402Z,21.12
2023-08-08T11:51:57.722Z,20.48
2023-08-08T11:52:57.648Z,21.12
2023-08-08T11:53:57.810Z,20.88
2023-08-08T11:54:57.951Z,20.24
2023-08-08T11:55:58.111Z,19.92
2023-08-08T11:56:58.220Z,19.92
2023-08-08T11:57:58.359Z,19.52
2023-08-08T11:58:58.466Z,19.12
2023-08-08T11:59:58.628Z,18.88
2023-08-08T12:00:58.784Z,18.32
2023-08-08T12:01:59.069Z,17.2
2023-08-08T12:02:59.310Z,16.8
2023-08-08T12:03:59.247Z,17.04
2023-08-08T12:04:59.373Z,17.12
2023-08-08T12:05:59.529Z,17.52
2023-08-08T12:06:59.704Z,17.92
2023-08-08T12:07:59.839Z,18.8
2023-08-08T12:08:59.985Z,19.28
2023-08-08T12:10:00.156Z,19.44
2023-08-08T12:11:00.236Z,19.76
2023-08-08T12:12:00.466Z,19.92
2023-08-08T12:13:00.563Z,19.68
2023-08-08T12:14:00.744Z,19.44
2023-08-08T12:17:01.213Z,22.32
2023-08-08T12:18:01.867Z,22.88
2023-08-08T12:20:01.501Z,23.28
2023-08-08T12:21:02.435Z,23.28
2023-08-08T12:23:01.917Z,22
2023-08-08T12:24:02.714Z,21.6
2023-08-08T12:26:02.460Z,20.4
2023-08-08T12:27:03.241Z,20.32
2023-08-08T12:29:02.941Z,20.08
2023-08-08T12:30:03.485Z,20.48
2023-08-08T12:32:03.320Z,21.2
2023-08-08T12:33:04.175Z,21.92
2023-08-08T12:35:03.731Z,23.6
2023-08-08T12:36:04.788Z,23.6
2023-08-08T12:38:04.178Z,23.84
2023-08-08T12:39:05.190Z,24.4
2023-08-08T12:41:04.608Z,22
2023-08-08T12:42:05.471Z,22.4
2023-08-08T12:44:05.044Z,21.28
2023-08-08T12:45:05.768Z,21.52
2023-08-08T12:47:05.431Z,21.92
2023-08-08T12:48:06.268Z,22.08
2023-08-08T12:50:05.807Z,21.6
2023-08-08T12:51:06.596Z,21.84
2023-08-08T12:53:06.258Z,21.68
2023-08-08T12:54:06.864Z,21.52
2023-08-08T12:56:06.672Z,20.88
2023-08-08T12:57:07.677Z,20.48
2023-08-08T12:59:07.078Z,19.92
2023-08-08T13:00:07.955Z,19.52
2023-08-08T13:02:07.461Z,19.2
2023-08-08T13:03:08.204Z,19.04
2023-08-08T13:05:07.845Z,19.52
2023-08-08T13:06:08.601Z,20.08
2023-08-08T13:08:08.287Z,21.44
2023-08-08T13:09:09.295Z,21.52
2023-08-08T13:11:08.693Z,23.28
2023-08-08T13:12:09.403Z,23.2
2023-08-08T13:14:09.149Z,24.08
2023-08-08T13:15:10.031Z,24.24
2023-08-08T13:17:09.605Z,21.84
2023-08-08T13:18:10.368Z,21.92
2023-08-08T13:20:10.109Z,21.44
2023-08-08T13:21:11.064Z,22.08
2023-08-08T13:23:10.574Z,23.92
2023-08-08T13:24:11.432Z,24.24